< < Back
Terminal Aerodrome Forecast


Current Version              Previous Versions:   1  2  3  4  5  6  7  8  9  

Terminal Aerodrome Forecast

231
FTUS44 KOHX 272300
TAFBNA
TAF
KBNA 272320Z 2800/2824 18004KT P6SM BKN250
     FM280800 00000KT 6SM BR SCT010 BKN025
      TEMPO 2808/2812 3SM BR BKN010 OVC025
     FM281500 14006KT P6SM SCT035 BKN100 OVC250
      TEMPO 2819/2822 BKN035 OVC100=

Latest METAR

999
SAUS70 KWBC 280000 RRB
MTRBNA
METAR KBNA 272353Z 00000KT 10SM FEW030 SCT100 BKN170 OVC250 22/20 A3014
RMK AO2 RAB03E13 SLP199 P0000 60015 T02220200 10278 20200
56009


USA.gov is the U.S. government's official web portal to all federal, state and local government web resources and services.